sensor_id;sensor_type;location;lat;lon;timestamp;P1;durP1;ratioP1;P2;durP2;ratioP2
52434;SDS011;38354;52.892;6.148;2022-11-20T05:01:14;29.63;;;13.77;;
52434;SDS011;38354;52.892;6.148;2022-11-20T05:03:41;27.95;;;13.40;;
52434;SDS011;38354;52.892;6.148;2022-11-20T05:06:08;26.65;;;13.68;;
52434;SDS011;38354;52.892;6.148;2022-11-20T05:08:35;26.23;;;13.63;;
52434;SDS011;38354;52.892;6.148;2022-11-20T05:11:02;24.60;;;12.50;;
52434;SDS011;38354;52.892;6.148;2022-11-20T05:13:35;25.73;;;12.45;;
52434;SDS011;38354;52.892;6.148;2022-11-20T05:16:01;23.30;;;12.20;;
52434;SDS011;38354;52.892;6.148;2022-11-20T05:18:28;25.77;;;12.57;;
52434;SDS011;38354;52.892;6.148;2022-11-20T05:20:54;25.20;;;12.13;;
52434;SDS011;38354;52.892;6.148;2022-11-20T05:23:21;22.48;;;12.07;;
52434;SDS011;38354;52.892;6.148;2022-11-20T05:25:47;26.17;;;13.20;;
52434;SDS011;38354;52.892;6.148;2022-11-20T05:28:12;28.00;;;13.15;;
52434;SDS011;38354;52.892;6.148;2022-11-20T05:30:39;24.45;;;12.40;;
52434;SDS011;38354;52.892;6.148;2022-11-20T05:33:04;22.40;;;12.13;;
52434;SDS011;38354;52.892;6.148;2022-11-20T05:35:30;23.60;;;12.38;;
52434;SDS011;38354;52.892;6.148;2022-11-20T05:37:55;22.35;;;11.80;;
52434;SDS011;38354;52.892;6.148;2022-11-20T05:40:21;23.77;;;12.13;;
52434;SDS011;38354;52.892;6.148;2022-11-20T05:42:47;24.90;;;12.82;;
52434;SDS011;38354;52.892;6.148;2022-11-20T05:45:12;23.58;;;12.40;;
52434;SDS011;38354;52.892;6.148;2022-11-20T05:47:38;24.27;;;12.13;;
52434;SDS011;38354;52.892;6.148;2022-11-20T05:50:03;23.60;;;11.43;;
52434;SDS011;38354;52.892;6.148;2022-11-20T05:52:29;25.38;;;11.80;;
52434;SDS011;38354;52.892;6.148;2022-11-20T05:54:56;19.33;;;10.32;;
52434;SDS011;38354;52.892;6.148;2022-11-20T05:57:21;21.65;;;11.35;;
52434;SDS011;38354;52.892;6.148;2022-11-20T05:59:47;21.35;;;10.65;;
52434;SDS011;38354;52.892;6.148;2022-11-20T06:02:13;24.30;;;12.10;;
52434;SDS011;38354;52.892;6.148;2022-11-20T06:04:38;22.15;;;11.30;;
52434;SDS011;38354;52.892;6.148;2022-11-20T06:07:04;20.95;;;10.30;;
52434;SDS011;38354;52.892;6.148;2022-11-20T06:09:30;21.13;;;10.70;;
52434;SDS011;38354;52.892;6.148;2022-11-20T06:11:56;20.60;;;10.20;;
52434;SDS011;38354;52.892;6.148;2022-11-20T06:14:22;22.75;;;10.50;;
52434;SDS011;38354;52.892;6.148;2022-11-20T06:16:48;22.00;;;10.23;;
52434;SDS011;38354;52.892;6.148;2022-11-20T06:19:13;18.98;;;9.95;;
52434;SDS011;38354;52.892;6.148;2022-11-20T06:21:40;21.05;;;10.70;;
52434;SDS011;38354;52.892;6.148;2022-11-20T06:24:05;22.23;;;11.18;;
52434;SDS011;38354;52.892;6.148;2022-11-20T06:26:33;21.42;;;10.95;;
52434;SDS011;38354;52.892;6.148;2022-11-20T06:28:59;20.65;;;10.90;;
52434;SDS011;38354;52.892;6.148;2022-11-20T06:31:25;23.75;;;11.23;;
52434;SDS011;38354;52.892;6.148;2022-11-20T06:33:51;22.27;;;11.18;;
52434;SDS011;38354;52.892;6.148;2022-11-20T06:36:18;20.88;;;10.57;;
52434;SDS011;38354;52.892;6.148;2022-11-20T06:38:46;22.30;;;10.98;;
52434;SDS011;38354;52.892;6.148;2022-11-20T06:41:13;22.42;;;10.82;;
52434;SDS011;38354;52.892;6.148;2022-11-20T06:43:44;20.58;;;11.00;;
52434;SDS011;38354;52.892;6.148;2022-11-20T06:46:10;22.02;;;11.00;;
52434;SDS011;38354;52.892;6.148;2022-11-20T06:48:37;22.30;;;10.90;;
52434;SDS011;38354;52.892;6.148;2022-11-20T06:51:04;24.42;;;11.75;;
52434;SDS011;38354;52.892;6.148;2022-11-20T06:53:31;24.60;;;11.52;;
52434;SDS011;38354;52.892;6.148;2022-11-20T06:55:57;22.63;;;10.88;;
52434;SDS011;38354;52.892;6.148;2022-11-20T06:58:23;21.98;;;11.15;;
52434;SDS011;38354;52.892;6.148;2022-11-20T07:00:51;22.20;;;11.15;;
52434;SDS011;38354;52.892;6.148;2022-11-20T07:03:16;23.75;;;12.32;;
52434;SDS011;38354;52.892;6.148;2022-11-20T07:05:42;18.63;;;10.43;;
52434;SDS011;38354;52.892;6.148;2022-11-20T07:08:08;25.83;;;11.60;;
52434;SDS011;38354;52.892;6.148;2022-11-20T07:10:34;21.33;;;11.45;;
52434;SDS011;38354;52.892;6.148;2022-11-20T07:13:00;24.40;;;11.68;;
52434;SDS011;38354;52.892;6.148;2022-11-20T07:15:26;23.10;;;11.18;;
52434;SDS011;38354;52.892;6.148;2022-11-20T07:17:52;20.92;;;10.95;;
52434;SDS011;38354;52.892;6.148;2022-11-20T07:20:18;23.30;;;12.07;;
52434;SDS011;38354;52.892;6.148;2022-11-20T07:22:43;22.02;;;10.75;;
52434;SDS011;38354;52.892;6.148;2022-11-20T07:25:09;20.70;;;10.88;;
52434;SDS011;38354;52.892;6.148;2022-11-20T07:27:35;21.88;;;11.38;;
52434;SDS011;38354;52.892;6.148;2022-11-20T07:30:02;22.05;;;11.70;;
52434;SDS011;38354;52.892;6.148;2022-11-20T07:32:28;21.50;;;10.93;;
52434;SDS011;38354;52.892;6.148;2022-11-20T07:34:54;23.40;;;11.48;;
52434;SDS011;38354;52.892;6.148;2022-11-20T07:37:20;24.75;;;12.43;;
52434;SDS011;38354;52.892;6.148;2022-11-20T07:39:45;24.95;;;12.05;;
52434;SDS011;38354;52.892;6.148;2022-11-20T07:42:11;24.00;;;12.93;;
52434;SDS011;38354;52.892;6.148;2022-11-20T07:44:37;24.23;;;13.02;;
52434;SDS011;38354;52.892;6.148;2022-11-20T07:47:03;27.98;;;13.52;;
52434;SDS011;38354;52.892;6.148;2022-11-20T07:49:29;26.25;;;13.05;;
52434;SDS011;38354;52.892;6.148;2022-11-20T07:51:54;27.15;;;13.27;;
52434;SDS011;38354;52.892;6.148;2022-11-20T07:54:20;25.75;;;12.65;;
52434;SDS011;38354;52.892;6.148;2022-11-20T07:56:46;26.55;;;13.98;;
52434;SDS011;38354;52.892;6.148;2022-11-20T07:59:13;24.58;;;12.77;;
52434;SDS011;38354;52.892;6.148;2022-11-20T08:01:39;27.42;;;14.60;;
52434;SDS011;38354;52.892;6.148;2022-11-20T08:04:05;27.45;;;13.90;;
52434;SDS011;38354;52.892;6.148;2022-11-20T08:06:31;24.17;;;13.10;;
52434;SDS011;38354;52.892;6.148;2022-11-20T08:08:57;24.10;;;11.95;;
52434;SDS011;38354;52.892;6.148;2022-11-20T08:11:23;23.25;;;12.30;;
52434;SDS011;38354;52.892;6.148;2022-11-20T08:14:07;24.05;;;12.52;;
52434;SDS011;38354;52.892;6.148;2022-11-20T08:16:39;27.27;;;13.77;;
52434;SDS011;38354;52.892;6.148;2022-11-20T08:19:05;25.73;;;13.02;;
52434;SDS011;38354;52.892;6.148;2022-11-20T08:21:31;24.85;;;12.63;;
52434;SDS011;38354;52.892;6.148;2022-11-20T08:23:57;26.08;;;12.85;;
52434;SDS011;38354;52.892;6.148;2022-11-20T08:26:23;25.88;;;12.63;;
52434;SDS011;38354;52.892;6.148;2022-11-20T08:28:53;25.73;;;13.20;;
52434;SDS011;38354;52.892;6.148;2022-11-20T08:31:21;28.77;;;13.77;;
52434;SDS011;38354;52.892;6.148;2022-11-20T08:33:47;25.30;;;13.27;;
52434;SDS011;38354;52.892;6.148;2022-11-20T08:36:12;27.52;;;12.52;;
52434;SDS011;38354;52.892;6.148;2022-11-20T08:38:38;24.48;;;13.00;;
52434;SDS011;38354;52.892;6.148;2022-11-20T08:41:04;24.25;;;12.60;;
52434;SDS011;38354;52.892;6.148;2022-11-20T08:43:52;24.73;;;12.70;;
52434;SDS011;38354;52.892;6.148;2022-11-20T08:46:20;21.98;;;12.07;;
52434;SDS011;38354;52.892;6.148;2022-11-20T08:48:45;21.45;;;11.23;;
52434;SDS011;38354;52.892;6.148;2022-11-20T08:51:11;22.80;;;11.60;;
52434;SDS011;38354;52.892;6.148;2022-11-20T08:53:38;24.40;;;12.07;;
52434;SDS011;38354;52.892;6.148;2022-11-20T08:56:04;23.38;;;11.77;;
52434;SDS011;38354;52.892;6.148;2022-11-20T08:58:30;22.90;;;12.13;;
52434;SDS011;38354;52.892;6.148;2022-11-20T09:00:56;22.10;;;11.52;;
52434;SDS011;38354;52.892;6.148;2022-11-20T09:03:22;26.08;;;11.82;;
52434;SDS011;38354;52.892;6.148;2022-11-20T09:05:48;24.10;;;12.35;;
52434;SDS011;38354;52.892;6.148;2022-11-20T09:08:13;20.75;;;11.50;;
52434;SDS011;38354;52.892;6.148;2022-11-20T09:10:39;20.88;;;11.27;;
52434;SDS011;38354;52.892;6.148;2022-11-20T09:13:05;24.45;;;11.43;;
52434;SDS011;38354;52.892;6.148;2022-11-20T09:15:31;23.77;;;11.48;;
52434;SDS011;38354;52.892;6.148;2022-11-20T09:17:58;21.25;;;11.32;;
52434;SDS011;38354;52.892;6.148;2022-11-20T09:20:26;21.30;;;11.25;;
52434;SDS011;38354;52.892;6.148;2022-11-20T09:22:54;22.02;;;12.10;;
52434;SDS011;38354;52.892;6.148;2022-11-20T09:25:20;21.55;;;10.98;;
52434;SDS011;38354;52.892;6.148;2022-11-20T09:27:46;27.73;;;11.43;;
52434;SDS011;38354;52.892;6.148;2022-11-20T09:30:15;20.73;;;10.85;;
52434;SDS011;38354;52.892;6.148;2022-11-20T09:32:41;24.80;;;11.32;;
52434;SDS011;38354;52.892;6.148;2022-11-20T09:35:07;20.80;;;10.80;;
52434;SDS011;38354;52.892;6.148;2022-11-20T09:37:33;19.08;;;10.55;;
52434;SDS011;38354;52.892;6.148;2022-11-20T09:39:59;21.00;;;11.43;;
52434;SDS011;38354;52.892;6.148;2022-11-20T09:42:27;20.30;;;10.57;;
52434;SDS011;38354;52.892;6.148;2022-11-20T09:45:02;19.40;;;11.03;;
52434;SDS011;38354;52.892;6.148;2022-11-20T09:56:40;19.92;;;10.60;;
52434;SDS011;38354;52.892;6.148;2022-11-20T09:59:14;19.23;;;10.82;;
52434;SDS011;38354;52.892;6.148;2022-11-20T10:01:48;20.10;;;11.57;;
52434;SDS011;38354;52.892;6.148;2022-11-20T10:04:18;17.73;;;10.25;;
52434;SDS011;38354;52.892;6.148;2022-11-20T10:09:38;18.58;;;10.35;;
52434;SDS011;38354;52.892;6.148;2022-11-20T10:18:02;18.83;;;9.35;;
52434;SDS011;38354;52.892;6.148;2022-11-20T10:34:14;15.07;;;8.57;;
52434;SDS011;38354;52.892;6.148;2022-11-20T10:36:54;14.30;;;8.23;;
52434;SDS011;38354;52.892;6.148;2022-11-20T10:42:02;15.18;;;8.23;;
52434;SDS011;38354;52.892;6.148;2022-11-20T10:44:36;15.45;;;8.00;;
52434;SDS011;38354;52.892;6.148;2022-11-20T10:47:24;15.23;;;8.40;;
52434;SDS011;38354;52.892;6.148;2022-11-20T10:49:53;13.90;;;8.38;;
52434;SDS011;38354;52.892;6.148;2022-11-20T11:00:37;13.98;;;7.93;;
52434;SDS011;38354;52.892;6.148;2022-11-20T11:03:07;14.38;;;7.97;;
52434;SDS011;38354;52.892;6.148;2022-11-20T11:05:50;12.88;;;7.72;;
52434;SDS011;38354;52.892;6.148;2022-11-20T11:08:26;13.27;;;8.48;;
52434;SDS011;38354;52.892;6.148;2022-11-20T11:10:59;13.15;;;7.90;;
52434;SDS011;38354;52.892;6.148;2022-11-20T11:13:28;13.32;;;8.27;;
52434;SDS011;38354;52.892;6.148;2022-11-20T11:15:55;15.45;;;8.82;;
52434;SDS011;38354;52.892;6.148;2022-11-20T11:20:51;13.38;;;8.27;;
52434;SDS011;38354;52.892;6.148;2022-11-20T11:26:03;14.02;;;8.50;;
52434;SDS011;38354;52.892;6.148;2022-11-20T11:28:31;13.55;;;8.32;;
52434;SDS011;38354;52.892;6.148;2022-11-20T11:30:57;16.15;;;9.07;;
52434;SDS011;38354;52.892;6.148;2022-11-20T11:33:24;13.68;;;8.05;;
52434;SDS011;38354;52.892;6.148;2022-11-20T11:35:58;14.95;;;8.30;;
52434;SDS011;38354;52.892;6.148;2022-11-20T11:38:34;15.60;;;8.70;;
52434;SDS011;38354;52.892;6.148;2022-11-20T11:41:00;15.10;;;8.23;;
52434;SDS011;38354;52.892;6.148;2022-11-20T11:43:29;13.07;;;6.95;;
52434;SDS011;38354;52.892;6.148;2022-11-20T11:46:24;13.93;;;7.57;;
52434;SDS011;38354;52.892;6.148;2022-11-20T11:49:13;11.20;;;7.10;;
52434;SDS011;38354;52.892;6.148;2022-11-20T11:51:47;11.50;;;6.97;;
52434;SDS011;38354;52.892;6.148;2022-11-20T11:57:29;13.85;;;7.78;;
52434;SDS011;38354;52.892;6.148;2022-11-20T12:08:05;15.93;;;7.70;;
52434;SDS011;38354;52.892;6.148;2022-11-20T12:10:50;13.48;;;7.47;;
52434;SDS011;38354;52.892;6.148;2022-11-20T12:16:07;11.70;;;7.28;;
52434;SDS011;38354;52.892;6.148;2022-11-20T12:18:39;11.80;;;6.28;;
52434;SDS011;38354;52.892;6.148;2022-11-20T12:21:11;13.73;;;6.93;;
52434;SDS011;38354;52.892;6.148;2022-11-20T12:24:10;29.10;;;7.68;;
52434;SDS011;38354;52.892;6.148;2022-11-20T12:29:53;11.43;;;6.85;;
52434;SDS011;38354;52.892;6.148;2022-11-20T12:44:33;13.00;;;7.47;;
52434;SDS011;38354;52.892;6.148;2022-11-20T12:52:57;12.30;;;6.82;;
52434;SDS011;38354;52.892;6.148;2022-11-20T13:01:05;12.30;;;7.15;;
52434;SDS011;38354;52.892;6.148;2022-11-20T13:04:54;11.80;;;7.18;;
52434;SDS011;38354;52.892;6.148;2022-11-20T13:07:05;12.88;;;7.57;;
52434;SDS011;38354;52.892;6.148;2022-11-20T13:09:36;11.43;;;6.90;;
52434;SDS011;38354;52.892;6.148;2022-11-20T13:12:10;13.20;;;7.85;;
52434;SDS011;38354;52.892;6.148;2022-11-20T13:14:58;14.82;;;7.53;;
52434;SDS011;38354;52.892;6.148;2022-11-20T13:18:00;13.60;;;7.43;;
52434;SDS011;38354;52.892;6.148;2022-11-20T13:20:28;14.43;;;7.78;;
52434;SDS011;38354;52.892;6.148;2022-11-20T13:22:56;12.55;;;7.47;;
52434;SDS011;38354;52.892;6.148;2022-11-20T13:25:26;12.70;;;7.53;;
52434;SDS011;38354;52.892;6.148;2022-11-20T13:27:52;15.05;;;8.00;;
52434;SDS011;38354;52.892;6.148;2022-11-20T13:30:22;12.30;;;7.40;;
52434;SDS011;38354;52.892;6.148;2022-11-20T13:32:53;15.55;;;8.55;;
52434;SDS011;38354;52.892;6.148;2022-11-20T13:35:35;13.30;;;7.88;;
52434;SDS011;38354;52.892;6.148;2022-11-20T13:40:30;13.95;;;8.18;;
52434;SDS011;38354;52.892;6.148;2022-11-20T13:43:01;14.77;;;8.73;;
52434;SDS011;38354;52.892;6.148;2022-11-20T13:45:33;14.85;;;8.00;;
52434;SDS011;38354;52.892;6.148;2022-11-20T13:48:02;16.00;;;8.85;;
52434;SDS011;38354;52.892;6.148;2022-11-20T13:59:17;14.90;;;8.75;;
52434;SDS011;38354;52.892;6.148;2022-11-20T14:01:52;16.70;;;8.75;;
52434;SDS011;38354;52.892;6.148;2022-11-20T14:04:23;13.20;;;7.93;;
52434;SDS011;38354;52.892;6.148;2022-11-20T14:06:53;16.10;;;9.07;;
52434;SDS011;38354;52.892;6.148;2022-11-20T14:09:27;16.85;;;9.40;;
52434;SDS011;38354;52.892;6.148;2022-11-20T14:11:54;15.73;;;8.82;;
52434;SDS011;38354;52.892;6.148;2022-11-20T14:14:21;15.60;;;8.43;;
52434;SDS011;38354;52.892;6.148;2022-11-20T14:16:52;15.07;;;8.95;;
52434;SDS011;38354;52.892;6.148;2022-11-20T14:19:29;13.15;;;8.10;;
52434;SDS011;38354;52.892;6.148;2022-11-20T14:24:48;15.20;;;8.65;;
52434;SDS011;38354;52.892;6.148;2022-11-20T14:27:25;17.10;;;9.73;;
52434;SDS011;38354;52.892;6.148;2022-11-20T14:29:51;16.05;;;9.60;;
52434;SDS011;38354;52.892;6.148;2022-11-20T14:32:18;18.90;;;9.50;;
52434;SDS011;38354;52.892;6.148;2022-11-20T14:34:47;17.38;;;9.77;;
52434;SDS011;38354;52.892;6.148;2022-11-20T14:37:21;18.25;;;9.75;;
52434;SDS011;38354;52.892;6.148;2022-11-20T14:39:52;17.50;;;10.13;;
52434;SDS011;38354;52.892;6.148;2022-11-20T14:42:23;19.02;;;10.40;;
52434;SDS011;38354;52.892;6.148;2022-11-20T14:44:52;19.52;;;10.70;;
52434;SDS011;38354;52.892;6.148;2022-11-20T14:47:21;17.77;;;10.75;;
52434;SDS011;38354;52.892;6.148;2022-11-20T14:49:50;17.73;;;9.90;;
52434;SDS011;38354;52.892;6.148;2022-11-20T14:52:18;19.77;;;10.73;;
52434;SDS011;38354;52.892;6.148;2022-11-20T14:54:46;17.23;;;10.13;;
52434;SDS011;38354;52.892;6.148;2022-11-20T14:57:21;18.92;;;10.88;;
52434;SDS011;38354;52.892;6.148;2022-11-20T14:59:48;19.38;;;10.52;;
52434;SDS011;38354;52.892;6.148;2022-11-20T15:02:14;18.85;;;10.60;;
52434;SDS011;38354;52.892;6.148;2022-11-20T15:04:46;18.42;;;10.77;;
52434;SDS011;38354;52.892;6.148;2022-11-20T15:07:28;21.58;;;11.30;;
52434;SDS011;38354;52.892;6.148;2022-11-20T15:09:59;19.83;;;10.55;;
52434;SDS011;38354;52.892;6.148;2022-11-20T15:12:33;19.67;;;11.60;;
52434;SDS011;38354;52.892;6.148;2022-11-20T15:15:02;22.83;;;11.32;;
52434;SDS011;38354;52.892;6.148;2022-11-20T15:17:30;20.88;;;10.80;;
52434;SDS011;38354;52.892;6.148;2022-11-20T15:19:56;17.40;;;10.15;;
52434;SDS011;38354;52.892;6.148;2022-11-20T15:22:22;19.10;;;10.85;;
52434;SDS011;38354;52.892;6.148;2022-11-20T15:24:48;20.65;;;10.85;;
52434;SDS011;38354;52.892;6.148;2022-11-20T15:27:13;18.80;;;10.88;;
52434;SDS011;38354;52.892;6.148;2022-11-20T15:29:39;21.10;;;11.75;;
52434;SDS011;38354;52.892;6.148;2022-11-20T15:32:07;19.38;;;10.60;;
52434;SDS011;38354;52.892;6.148;2022-11-20T15:34:33;20.30;;;11.52;;
52434;SDS011;38354;52.892;6.148;2022-11-20T15:36:59;19.60;;;10.60;;
52434;SDS011;38354;52.892;6.148;2022-11-20T15:39:24;19.42;;;10.93;;
52434;SDS011;38354;52.892;6.148;2022-11-20T15:41:50;19.52;;;10.77;;
52434;SDS011;38354;52.892;6.148;2022-11-20T15:44:19;18.10;;;10.52;;
52434;SDS011;38354;52.892;6.148;2022-11-20T15:46:45;18.88;;;10.70;;
52434;SDS011;38354;52.892;6.148;2022-11-20T15:49:14;22.55;;;12.38;;
52434;SDS011;38354;52.892;6.148;2022-11-20T15:51:44;18.77;;;10.98;;
52434;SDS011;38354;52.892;6.148;2022-11-20T15:54:13;19.13;;;11.40;;
52434;SDS011;38354;52.892;6.148;2022-11-20T15:56:45;22.40;;;12.13;;
52434;SDS011;38354;52.892;6.148;2022-11-20T15:59:11;19.52;;;11.27;;
52434;SDS011;38354;52.892;6.148;2022-11-20T16:01:39;20.05;;;11.93;;
52434;SDS011;38354;52.892;6.148;2022-11-20T16:04:12;22.42;;;12.30;;
52434;SDS011;38354;52.892;6.148;2022-11-20T16:06:39;19.42;;;11.43;;
52434;SDS011;38354;52.892;6.148;2022-11-20T16:09:05;19.15;;;11.30;;
52434;SDS011;38354;52.892;6.148;2022-11-20T16:11:31;20.33;;;11.77;;
52434;SDS011;38354;52.892;6.148;2022-11-20T16:13:57;20.27;;;11.45;;
52434;SDS011;38354;52.892;6.148;2022-11-20T16:16:41;21.50;;;11.45;;
52434;SDS011;38354;52.892;6.148;2022-11-20T16:19:14;21.08;;;11.75;;
52434;SDS011;38354;52.892;6.148;2022-11-20T16:21:41;19.80;;;11.70;;
52434;SDS011;38354;52.892;6.148;2022-11-20T16:24:07;20.63;;;12.10;;
52434;SDS011;38354;52.892;6.148;2022-11-20T16:26:35;21.63;;;12.20;;
52434;SDS011;38354;52.892;6.148;2022-11-20T16:29:03;20.85;;;11.75;;
52434;SDS011;38354;52.892;6.148;2022-11-20T16:31:30;22.63;;;12.40;;
52434;SDS011;38354;52.892;6.148;2022-11-20T16:33:56;21.95;;;12.75;;
52434;SDS011;38354;52.892;6.148;2022-11-20T16:36:27;21.80;;;12.40;;
52434;SDS011;38354;52.892;6.148;2022-11-20T16:38:55;20.75;;;12.60;;
52434;SDS011;38354;52.892;6.148;2022-11-20T16:41:23;21.05;;;11.82;;
52434;SDS011;38354;52.892;6.148;2022-11-20T16:43:54;21.77;;;12.63;;
52434;SDS011;38354;52.892;6.148;2022-11-20T16:46:22;19.35;;;11.52;;
52434;SDS011;38354;52.892;6.148;2022-11-20T16:48:56;21.05;;;12.18;;
52434;SDS011;38354;52.892;6.148;2022-11-20T16:51:22;18.90;;;11.60;;
52434;SDS011;38354;52.892;6.148;2022-11-20T16:53:48;22.88;;;12.55;;
52434;SDS011;38354;52.892;6.148;2022-11-20T16:56:16;23.92;;;12.77;;
52434;SDS011;38354;52.892;6.148;2022-11-20T16:58:44;21.20;;;12.20;;
52434;SDS011;38354;52.892;6.148;2022-11-20T17:01:11;20.67;;;12.48;;
52434;SDS011;38354;52.892;6.148;2022-11-20T17:03:38;19.27;;;11.52;;
52434;SDS011;38354;52.892;6.148;2022-11-20T17:06:09;20.63;;;12.00;;
52434;SDS011;38354;52.892;6.148;2022-11-20T17:08:39;20.15;;;12.02;;
52434;SDS011;38354;52.892;6.148;2022-11-20T17:11:09;22.42;;;12.77;;
52434;SDS011;38354;52.892;6.148;2022-11-20T17:13:37;22.38;;;12.55;;
52434;SDS011;38354;52.892;6.148;2022-11-20T17:16:03;25.63;;;12.25;;
52434;SDS011;38354;52.892;6.148;2022-11-20T17:18:31;22.55;;;12.40;;
52434;SDS011;38354;52.892;6.148;2022-11-20T17:20:57;24.83;;;13.70;;
52434;SDS011;38354;52.892;6.148;2022-11-20T17:23:27;22.83;;;12.60;;
52434;SDS011;38354;52.892;6.148;2022-11-20T17:25:59;23.77;;;12.88;;
52434;SDS011;38354;52.892;6.148;2022-11-20T17:28:27;22.60;;;13.25;;
52434;SDS011;38354;52.892;6.148;2022-11-20T17:30:53;25.02;;;13.73;;
52434;SDS011;38354;52.892;6.148;2022-11-20T17:33:23;27.80;;;13.70;;
52434;SDS011;38354;52.892;6.148;2022-11-20T17:35:48;27.25;;;15.07;;
52434;SDS011;38354;52.892;6.148;2022-11-20T17:38:14;26.13;;;14.15;;
52434;SDS011;38354;52.892;6.148;2022-11-20T17:40:39;27.23;;;14.63;;
52434;SDS011;38354;52.892;6.148;2022-11-20T17:43:05;25.98;;;14.00;;
52434;SDS011;38354;52.892;6.148;2022-11-20T17:45:31;25.85;;;14.43;;
52434;SDS011;38354;52.892;6.148;2022-11-20T17:48:00;25.67;;;13.77;;
52434;SDS011;38354;52.892;6.148;2022-11-20T17:50:26;27.00;;;14.77;;
52434;SDS011;38354;52.892;6.148;2022-11-20T17:52:51;27.13;;;15.07;;
52434;SDS011;38354;52.892;6.148;2022-11-20T17:55:17;27.33;;;16.05;;
52434;SDS011;38354;52.892;6.148;2022-11-20T17:57:42;28.00;;;15.70;;
52434;SDS011;38354;52.892;6.148;2022-11-20T18:00:18;31.30;;;16.58;;
52434;SDS011;38354;52.892;6.148;2022-11-20T18:02:44;26.98;;;15.07;;
52434;SDS011;38354;52.892;6.148;2022-11-20T18:05:10;27.63;;;16.42;;
52434;SDS011;38354;52.892;6.148;2022-11-20T18:07:35;28.30;;;15.32;;
52434;SDS011;38354;52.892;6.148;2022-11-20T18:10:03;28.27;;;15.82;;
52434;SDS011;38354;52.892;6.148;2022-11-20T18:12:29;33.20;;;16.92;;
52434;SDS011;38354;52.892;6.148;2022-11-20T18:14:55;27.63;;;16.55;;
52434;SDS011;38354;52.892;6.148;2022-11-20T18:17:21;29.40;;;16.20;;
52434;SDS011;38354;52.892;6.148;2022-11-20T18:19:46;30.77;;;15.88;;
52434;SDS011;38354;52.892;6.148;2022-11-20T18:22:14;28.98;;;15.93;;
52434;SDS011;38354;52.892;6.148;2022-11-20T18:24:40;28.08;;;16.02;;
52434;SDS011;38354;52.892;6.148;2022-11-20T18:27:07;32.03;;;17.10;;
52434;SDS011;38354;52.892;6.148;2022-11-20T18:29:38;28.23;;;16.17;;
52434;SDS011;38354;52.892;6.148;2022-11-20T18:32:04;33.08;;;16.92;;
52434;SDS011;38354;52.892;6.148;2022-11-20T18:34:30;29.70;;;16.77;;
52434;SDS011;38354;52.892;6.148;2022-11-20T18:36:55;29.52;;;16.33;;
52434;SDS011;38354;52.892;6.148;2022-11-20T18:39:21;33.17;;;17.63;;
52434;SDS011;38354;52.892;6.148;2022-11-20T18:41:48;32.42;;;16.95;;
52434;SDS011;38354;52.892;6.148;2022-11-20T18:44:32;34.92;;;18.60;;
52434;SDS011;38354;52.892;6.148;2022-11-20T18:47:25;33.35;;;17.95;;
52434;SDS011;38354;52.892;6.148;2022-11-20T18:49:53;33.85;;;18.15;;
52434;SDS011;38354;52.892;6.148;2022-11-20T18:52:22;30.80;;;17.02;;
52434;SDS011;38354;52.892;6.148;2022-11-20T18:55:08;35.22;;;18.40;;
52434;SDS011;38354;52.892;6.148;2022-11-20T18:57:35;32.00;;;17.00;;
52434;SDS011;38354;52.892;6.148;2022-11-20T19:00:00;35.03;;;18.85;;
52434;SDS011;38354;52.892;6.148;2022-11-20T19:02:28;34.90;;;17.45;;
52434;SDS011;38354;52.892;6.148;2022-11-20T19:04:54;36.13;;;18.75;;
52434;SDS011;38354;52.892;6.148;2022-11-20T19:07:20;35.08;;;18.50;;
52434;SDS011;38354;52.892;6.148;2022-11-20T19:09:48;31.50;;;18.27;;
52434;SDS011;38354;52.892;6.148;2022-11-20T19:12:16;35.38;;;18.65;;
52434;SDS011;38354;52.892;6.148;2022-11-20T19:14:43;38.28;;;19.00;;
52434;SDS011;38354;52.892;6.148;2022-11-20T19:17:08;38.05;;;19.40;;
52434;SDS011;38354;52.892;6.148;2022-11-20T19:19:38;36.42;;;19.40;;
52434;SDS011;38354;52.892;6.148;2022-11-20T19:22:04;36.25;;;18.63;;
52434;SDS011;38354;52.892;6.148;2022-11-20T19:24:29;34.13;;;18.27;;
52434;SDS011;38354;52.892;6.148;2022-11-20T19:26:55;39.65;;;20.10;;
52434;SDS011;38354;52.892;6.148;2022-11-20T19:29:21;38.78;;;19.15;;
52434;SDS011;38354;52.892;6.148;2022-11-20T19:31:48;34.10;;;18.77;;
52434;SDS011;38354;52.892;6.148;2022-11-20T19:34:14;34.58;;;18.35;;
52434;SDS011;38354;52.892;6.148;2022-11-20T19:36:40;36.78;;;19.50;;
52434;SDS011;38354;52.892;6.148;2022-11-20T19:39:06;39.78;;;19.65;;
52434;SDS011;38354;52.892;6.148;2022-11-20T19:41:33;38.90;;;19.70;;
52434;SDS011;38354;52.892;6.148;2022-11-20T19:44:01;40.08;;;20.05;;
52434;SDS011;38354;52.892;6.148;2022-11-20T19:46:28;41.10;;;20.20;;
52434;SDS011;38354;52.892;6.148;2022-11-20T19:48:56;41.92;;;19.92;;
52434;SDS011;38354;52.892;6.148;2022-11-20T19:51:22;39.90;;;19.95;;
52434;SDS011;38354;52.892;6.148;2022-11-20T19:53:50;39.67;;;18.70;;
52434;SDS011;38354;52.892;6.148;2022-11-20T19:56:16;39.17;;;19.13;;
52434;SDS011;38354;52.892;6.148;2022-11-20T19:58:42;48.00;;;20.40;;
52434;SDS011;38354;52.892;6.148;2022-11-20T20:01:08;42.33;;;20.42;;
52434;SDS011;38354;52.892;6.148;2022-11-20T20:03:36;40.90;;;19.98;;
52434;SDS011;38354;52.892;6.148;2022-11-20T20:06:03;41.10;;;19.70;;
52434;SDS011;38354;52.892;6.148;2022-11-20T20:08:31;42.30;;;20.25;;
52434;SDS011;38354;52.892;6.148;2022-11-20T20:10:57;41.20;;;19.85;;
52434;SDS011;38354;52.892;6.148;2022-11-20T20:13:23;38.83;;;21.60;;
52434;SDS011;38354;52.892;6.148;2022-11-20T20:15:50;44.40;;;20.77;;
52434;SDS011;38354;52.892;6.148;2022-11-20T20:18:16;46.00;;;21.33;;
52434;SDS011;38354;52.892;6.148;2022-11-20T20:20:42;40.97;;;19.00;;
52434;SDS011;38354;52.892;6.148;2022-11-20T20:23:07;38.40;;;20.10;;
52434;SDS011;38354;52.892;6.148;2022-11-20T20:25:34;41.88;;;20.27;;
52434;SDS011;38354;52.892;6.148;2022-11-20T20:28:02;42.78;;;20.88;;
52434;SDS011;38354;52.892;6.148;2022-11-20T20:30:28;40.20;;;20.58;;
52434;SDS011;38354;52.892;6.148;2022-11-20T20:32:54;39.40;;;20.33;;
52434;SDS011;38354;52.892;6.148;2022-11-20T20:35:19;38.83;;;19.80;;
52434;SDS011;38354;52.892;6.148;2022-11-20T20:37:45;44.05;;;20.38;;
52434;SDS011;38354;52.892;6.148;2022-11-20T20:40:11;40.50;;;20.02;;
52434;SDS011;38354;52.892;6.148;2022-11-20T20:42:37;46.08;;;21.25;;
52434;SDS011;38354;52.892;6.148;2022-11-20T20:45:02;41.55;;;21.48;;
52434;SDS011;38354;52.892;6.148;2022-11-20T20:47:38;40.55;;;20.30;;
52434;SDS011;38354;52.892;6.148;2022-11-20T20:50:06;42.60;;;20.17;;
52434;SDS011;38354;52.892;6.148;2022-11-20T20:52:34;42.42;;;20.65;;
52434;SDS011;38354;52.892;6.148;2022-11-20T20:55:00;46.38;;;21.20;;
52434;SDS011;38354;52.892;6.148;2022-11-20T20:57:25;42.85;;;20.80;;
52434;SDS011;38354;52.892;6.148;2022-11-20T20:59:52;43.97;;;21.13;;
52434;SDS011;38354;52.892;6.148;2022-11-20T21:02:19;45.75;;;20.65;;
52434;SDS011;38354;52.892;6.148;2022-11-20T21:04:48;42.97;;;20.40;;
52434;SDS011;38354;52.892;6.148;2022-11-20T21:07:14;39.13;;;20.55;;
52434;SDS011;38354;52.892;6.148;2022-11-20T21:09:41;40.60;;;20.00;;
52434;SDS011;38354;52.892;6.148;2022-11-20T21:12:06;45.20;;;21.05;;
52434;SDS011;38354;52.892;6.148;2022-11-20T21:14:32;40.10;;;20.08;;